ADDS TAF Data INFO
IDs: Format: Raw Decoded Include METARs

Data at: 0652 UTC 19 Nov 2017

KGUY 190553Z AUTO 00000KT 10SM CLR M03/M09 A3032 RMK AO2 SLP268 T10331094 10067 21050 401611050 50000

KGUY 190520Z 1906/2006 22004KT P6SM SKC
  FM191700 20016G23KT P6SM SKC
  FM192300 16016G23KT P6SM SKC